createdAt,value
2023-03-14T00:00:04.854Z,0.18
2023-03-14T00:01:44.633Z,0.21
2023-03-14T00:03:24.413Z,0.18
2023-03-14T00:05:04.168Z,0.18
2023-03-14T00:06:43.841Z,0.19
2023-03-14T00:08:23.780Z,0.2
2023-03-14T00:10:03.375Z,0.19
2023-03-14T00:11:43.137Z,0.19
2023-03-14T00:13:23.160Z,0.19
2023-03-14T00:15:02.723Z,0.19
2023-03-14T00:16:42.591Z,0.19
2023-03-14T00:18:22.257Z,0.18
2023-03-14T00:20:01.982Z,0.2
2023-03-14T00:21:41.757Z,0.19
2023-03-14T00:23:21.634Z,0.19
2023-03-14T00:25:01.364Z,0.2
2023-03-14T00:26:41.224Z,0.19
2023-03-14T00:28:20.919Z,0.2
2023-03-14T00:30:00.621Z,0.19
2023-03-14T00:31:40.508Z,0.21
2023-03-14T00:33:20.202Z,0.19
2023-03-14T00:34:59.893Z,0.21
2023-03-14T00:36:39.914Z,0.18
2023-03-14T00:38:19.631Z,0.18
2023-03-14T00:39:59.197Z,0.17
2023-03-14T00:41:39.015Z,0.2
2023-03-14T00:43:18.721Z,0.19
2023-03-14T00:44:58.667Z,0.18
2023-03-14T00:46:38.412Z,0.2
2023-03-14T00:48:18.200Z,0.2
2023-03-14T00:49:57.965Z,0.18
2023-03-14T00:51:37.708Z,0.2
2023-03-14T00:53:17.328Z,0.17
2023-03-14T00:54:57.231Z,0.17
2023-03-14T00:56:37.033Z,0.18
2023-03-14T00:58:16.682Z,0.19
2023-03-14T00:59:56.540Z,0.19
2023-03-14T01:01:36.173Z,0.19
2023-03-14T01:03:15.934Z,0.21
2023-03-14T01:04:55.799Z,0.21
2023-03-14T01:06:35.516Z,0.19
2023-03-14T01:08:15.248Z,0.2
2023-03-14T01:09:55.183Z,0.2
2023-03-14T01:11:34.776Z,0.17
2023-03-14T01:13:14.647Z,0.2
2023-03-14T01:14:54.417Z,0.21
2023-03-14T01:16:34.219Z,0.19
2023-03-14T01:18:13.918Z,0.19
2023-03-14T01:19:53.706Z,0.21
2023-03-14T01:21:33.626Z,0.2
2023-03-14T01:23:13.144Z,0.23
2023-03-14T01:24:53.040Z,0.22
2023-03-14T01:26:32.767Z,0.26
2023-03-14T01:28:12.584Z,0.22
2023-03-14T01:29:52.273Z,0.24
2023-03-14T01:31:32.114Z,0.26
2023-03-14T01:33:11.815Z,0.24
2023-03-14T01:34:51.676Z,0.24
2023-03-14T01:36:31.407Z,0.23
2023-03-14T01:38:11.051Z,0.23
2023-03-14T01:39:50.948Z,0.24
2023-03-14T01:41:30.602Z,0.22
2023-03-14T01:43:10.363Z,0.23
2023-03-14T01:44:50.260Z,0.21
2023-03-14T01:46:29.972Z,0.22
2023-03-14T01:48:09.659Z,0.22
2023-03-14T01:49:49.508Z,0.22
2023-03-14T01:51:29.392Z,0.23
2023-03-14T01:53:09.006Z,0.25
2023-03-14T01:54:48.727Z,0.24
2023-03-14T01:56:28.692Z,0.25
2023-03-14T01:58:08.402Z,0.22
2023-03-14T01:59:48.053Z,0.24
2023-03-14T02:01:27.939Z,0.24
2023-03-14T02:03:07.700Z,0.23
2023-03-14T02:04:47.359Z,0.21
2023-03-14T02:06:27.224Z,0.23
2023-03-14T02:08:06.868Z,0.21
2023-03-14T02:09:46.731Z,0.19
2023-03-14T02:11:26.498Z,0.21
2023-03-14T02:13:06.375Z,0.22
2023-03-14T02:14:46.013Z,0.19
2023-03-14T02:16:25.731Z,0.2
2023-03-14T02:18:05.481Z,0.18
2023-03-14T02:19:45.236Z,0.22
2023-03-14T02:21:25.171Z,0.19
2023-03-14T02:23:04.831Z,0.19
2023-03-14T02:24:44.650Z,0.21
2023-03-14T02:26:24.294Z,0.22
2023-03-14T02:28:04.150Z,0.19
2023-03-14T02:29:43.937Z,0.21
2023-03-14T02:31:23.605Z,0.23
2023-03-14T02:33:03.370Z,0.23
2023-03-14T02:34:43.142Z,0.23
2023-03-14T02:36:22.910Z,0.23
2023-03-14T02:38:02.853Z,0.23
2023-03-14T02:39:42.624Z,0.27
2023-03-14T02:41:22.336Z,0.23
2023-03-14T02:43:02.068Z,0.26
2023-03-14T02:44:41.749Z,0.26
2023-03-14T02:46:21.527Z,0.24
2023-03-14T02:48:01.388Z,0.26
2023-03-14T02:49:41.041Z,0.24
2023-03-14T02:51:20.806Z,0.21
2023-03-14T02:53:00.687Z,0.21
2023-03-14T02:54:40.421Z,0.2
2023-03-14T02:56:20.105Z,0.2
2023-03-14T02:57:59.969Z,0.19
2023-03-14T02:59:39.672Z,0.19
2023-03-14T03:01:19.474Z,0.2
2023-03-14T03:02:59.179Z,0.18
2023-03-14T03:04:39.121Z,0.19
2023-03-14T03:06:18.779Z,0.2
2023-03-14T03:07:58.662Z,0.19
2023-03-14T03:09:38.313Z,0.19
2023-03-14T03:11:18.017Z,0.21
2023-03-14T03:12:57.874Z,0.19
2023-03-14T03:14:37.580Z,0.19
2023-03-14T03:16:17.312Z,0.19
2023-03-14T03:17:57.178Z,0.21
2023-03-14T03:19:36.986Z,0.2
2023-03-14T03:21:16.636Z,0.19
2023-03-14T03:22:56.398Z,0.23
2023-03-14T03:24:36.241Z,0.21
2023-03-14T03:26:16.128Z,0.21
2023-03-14T03:27:55.843Z,0.21
2023-03-14T03:29:35.632Z,0.2
2023-03-14T03:31:15.339Z,0.19
2023-03-14T03:32:55.122Z,0.21
2023-03-14T03:34:34.916Z,0.21
2023-03-14T03:36:14.671Z,0.22
2023-03-14T03:37:54.426Z,0.21
2023-03-14T03:39:34.283Z,0.21
2023-03-14T03:41:14.004Z,0.21
2023-03-14T03:42:53.704Z,0.21
2023-03-14T03:44:33.455Z,0.21
2023-03-14T03:46:13.263Z,0.23
2023-03-14T03:47:52.997Z,0.21
2023-03-14T03:49:32.844Z,0.22
2023-03-14T03:51:12.547Z,0.22
2023-03-14T03:52:52.221Z,0.23
2023-03-14T03:54:32.206Z,0.22
2023-03-14T03:56:11.740Z,0.21
2023-03-14T03:57:51.665Z,0.21
2023-03-14T03:59:31.285Z,0.21
2023-03-14T04:01:11.058Z,0.21
2023-03-14T04:02:50.807Z,0.21
2023-03-14T04:04:30.615Z,0.22
2023-03-14T04:06:10.353Z,0.19
2023-03-14T04:07:50.120Z,0.2
2023-03-14T04:09:29.889Z,0.19
2023-03-14T04:11:09.775Z,0.22
2023-03-14T04:12:49.593Z,0.2
2023-03-14T04:14:29.299Z,0.22
2023-03-14T04:16:08.952Z,0.19
2023-03-14T04:17:48.804Z,0.23
2023-03-14T04:19:28.496Z,0.24
2023-03-14T04:21:08.458Z,0.24
2023-03-14T04:22:48.032Z,0.25
2023-03-14T04:24:27.960Z,0.25
2023-03-14T04:26:07.703Z,0.24
2023-03-14T04:27:47.387Z,0.26
2023-03-14T04:29:27.104Z,0.27
2023-03-14T04:31:06.916Z,0.29
2023-03-14T04:32:46.628Z,0.28
2023-03-14T04:34:26.568Z,0.3
2023-03-14T04:36:06.271Z,0.33
2023-03-14T04:37:46.090Z,0.33
2023-03-14T04:39:25.763Z,0.38
2023-03-14T04:41:05.658Z,0.42
2023-03-14T04:42:45.311Z,0.54
2023-03-14T04:44:25.058Z,0.67
2023-03-14T04:46:04.893Z,0.83
2023-03-14T04:47:44.674Z,1.08
2023-03-14T04:49:24.299Z,1.43
2023-03-14T04:51:04.162Z,1.84
2023-03-14T04:52:43.970Z,2.5
2023-03-14T04:54:23.746Z,3.32
2023-03-14T04:56:03.453Z,4.42
2023-03-14T04:57:43.294Z,5.87
2023-03-14T04:59:22.975Z,7.64
2023-03-14T05:01:02.799Z,9.77
2023-03-14T05:02:42.443Z,12.49
2023-03-14T05:04:22.406Z,16.11
2023-03-14T05:06:02.097Z,20.73
2023-03-14T05:07:41.742Z,25.54
2023-03-14T05:09:21.596Z,30.06
2023-03-14T05:11:01.371Z,26.85
2023-03-14T05:12:41.075Z,26.9
2023-03-14T05:14:20.845Z,26.93
2023-03-14T05:16:00.638Z,26.91
2023-03-14T05:17:40.474Z,26.92
2023-03-14T05:19:20.314Z,26.91
2023-03-14T05:21:00.043Z,26.92
2023-03-14T05:22:39.638Z,26.92
2023-03-14T05:24:19.503Z,26.92
2023-03-14T05:25:59.283Z,26.93
2023-03-14T05:27:38.960Z,26.92
2023-03-14T05:29:18.814Z,26.94
2023-03-14T05:30:58.621Z,26.94
2023-03-14T05:32:38.239Z,26.95
2023-03-14T05:34:18.015Z,26.96
2023-03-14T05:35:57.974Z,26.97
2023-03-14T05:37:37.648Z,26.95
2023-03-14T05:39:17.465Z,26.95
2023-03-14T05:40:57.167Z,26.96
2023-03-14T05:42:36.843Z,26.95
2023-03-14T05:44:16.686Z,26.97
2023-03-14T05:45:56.504Z,26.96
2023-03-14T05:47:36.277Z,26.96
2023-03-14T05:49:15.932Z,26.99
2023-03-14T05:50:55.793Z,27
2023-03-14T05:52:35.463Z,27.05
2023-03-14T05:54:15.301Z,27.07
2023-03-14T05:55:55.022Z,27.08
2023-03-14T05:57:34.833Z,27.1
2023-03-14T05:59:14.523Z,27.11
2023-03-14T06:00:54.330Z,27.13
2023-03-14T06:02:34.192Z,27.15
2023-03-14T06:04:13.909Z,27.19
2023-03-14T06:05:53.678Z,27.22
2023-03-14T06:07:33.381Z,27.26
2023-03-14T06:09:13.252Z,27.31
2023-03-14T06:10:53.050Z,41.35
2023-03-14T06:12:32.769Z,27.44
2023-03-14T06:14:12.507Z,27.46
2023-03-14T06:15:52.225Z,27.51
2023-03-14T06:17:32.002Z,27.55
2023-03-14T06:19:11.846Z,27.6
2023-03-14T06:20:51.553Z,27.68
2023-03-14T06:22:31.325Z,27.71
2023-03-14T06:24:11.132Z,27.75
2023-03-14T06:25:50.941Z,27.81
2023-03-14T06:27:30.744Z,27.86
2023-03-14T06:29:10.400Z,27.85
2023-03-14T06:30:50.168Z,27.96
2023-03-14T06:32:30.001Z,28.04
2023-03-14T06:34:09.878Z,28.09
2023-03-14T06:35:49.648Z,28.12
2023-03-14T06:37:29.265Z,28.19
2023-03-14T06:39:09.121Z,28.23
2023-03-14T06:40:48.797Z,28.3
2023-03-14T06:42:28.645Z,28.4
2023-03-14T06:44:08.490Z,28.52
2023-03-14T06:45:48.154Z,28.64
2023-03-14T06:47:28.013Z,28.71
2023-03-14T06:49:07.791Z,28.76
2023-03-14T06:50:47.595Z,28.81
2023-03-14T06:52:27.330Z,28.89
2023-03-14T06:54:07.083Z,28.96
2023-03-14T06:55:46.891Z,28.99
2023-03-14T06:57:26.480Z,29.05
2023-03-14T06:59:06.424Z,29.1
2023-03-14T07:00:46.052Z,29.25
2023-03-14T07:02:25.912Z,29.32
2023-03-14T07:04:05.742Z,29.42
2023-03-14T07:05:45.346Z,28.92
2023-03-14T07:07:25.288Z,29.12
2023-03-14T07:09:05.055Z,29.41
2023-03-14T07:10:44.796Z,79.5
2023-03-14T07:12:24.631Z,80.74
2023-03-14T07:14:04.194Z,78.76
2023-03-14T07:15:44.017Z,78.79
2023-03-14T07:17:23.742Z,80.12
2023-03-14T07:19:03.566Z,80.29
2023-03-14T07:20:43.342Z,80.53
2023-03-14T07:22:23.189Z,81.1
2023-03-14T07:24:03.012Z,81.19
2023-03-14T07:25:42.592Z,81.39
2023-03-14T07:27:22.351Z,81.26
2023-03-14T07:29:02.118Z,80.89
2023-03-14T07:30:41.885Z,80.76
2023-03-14T07:32:21.674Z,81.96
2023-03-14T07:34:01.496Z,83.07
2023-03-14T07:35:41.204Z,83.45
2023-03-14T07:37:20.975Z,82.79
2023-03-14T07:39:00.856Z,81.64
2023-03-14T07:40:40.515Z,80.96
2023-03-14T07:42:20.394Z,80.83
2023-03-14T07:44:00.070Z,81.08
2023-03-14T07:45:39.875Z,81.16
2023-03-14T07:47:19.596Z,81.12
2023-03-14T07:48:59.369Z,81.25
2023-03-14T07:50:39.252Z,80.89
2023-03-14T07:52:18.994Z,80.31
2023-03-14T07:53:58.793Z,79.86
2023-03-14T07:55:38.551Z,79.42
2023-03-14T07:57:18.286Z,80.19
2023-03-14T07:58:58.048Z,80.53
2023-03-14T08:00:37.756Z,80.94
2023-03-14T08:02:17.673Z,82.22
2023-03-14T08:03:57.319Z,83.55
2023-03-14T08:05:37.388Z,85.14
2023-03-14T08:07:16.984Z,85.18
2023-03-14T08:08:56.612Z,85.4
2023-03-14T08:10:36.503Z,84.78
2023-03-14T08:12:16.251Z,83.18
2023-03-14T08:13:56.014Z,82.63
2023-03-14T08:15:35.855Z,84.29
2023-03-14T08:17:15.471Z,85.34
2023-03-14T08:18:55.357Z,83.02
2023-03-14T08:20:35.100Z,83.39
2023-03-14T08:22:14.941Z,84.1
2023-03-14T08:23:54.542Z,86.08
2023-03-14T08:25:34.499Z,84.85
2023-03-14T08:27:14.093Z,83.74
2023-03-14T08:28:53.988Z,83.09
2023-03-14T08:30:33.621Z,83.34
2023-03-14T08:32:13.556Z,84.51
2023-03-14T08:33:53.352Z,82.97
2023-03-14T08:35:32.994Z,82.28
2023-03-14T08:37:12.710Z,81.51
2023-03-14T08:38:52.592Z,77.5
2023-03-14T08:40:32.325Z,76.44
2023-03-14T08:42:12.183Z,77.78
2023-03-14T08:43:51.939Z,76.89
2023-03-14T08:45:31.571Z,80.8
2023-03-14T08:47:11.450Z,79.87
2023-03-14T08:48:51.239Z,82.81
2023-03-14T08:50:30.985Z,80.8
2023-03-14T08:52:10.647Z,83.88
2023-03-14T08:53:50.590Z,85.28
2023-03-14T08:55:30.326Z,84.35
2023-03-14T08:57:10.115Z,85.89
2023-03-14T08:58:49.945Z,83.01
2023-03-14T09:00:29.605Z,84.11
2023-03-14T09:02:09.268Z,83
2023-03-14T09:03:49.145Z,82.85
2023-03-14T09:05:28.898Z,82.04
2023-03-14T09:07:08.571Z,80.44
2023-03-14T09:08:48.519Z,83.53
2023-03-14T09:10:28.151Z,83.41
2023-03-14T09:12:07.896Z,86.12
2023-03-14T09:13:47.719Z,87.76
2023-03-14T09:15:27.493Z,86.62
2023-03-14T09:17:07.282Z,86.07
2023-03-14T09:18:46.997Z,86.27
2023-03-14T09:20:26.778Z,85.62
2023-03-14T09:22:06.546Z,84.41
2023-03-14T09:23:46.299Z,89.25
2023-03-14T09:25:26.125Z,87.35
2023-03-14T09:27:05.951Z,87.78
2023-03-14T09:28:45.700Z,87.4
2023-03-14T09:30:25.355Z,87.14
2023-03-14T09:32:05.204Z,87.11
2023-03-14T09:33:44.903Z,86.95
2023-03-14T09:35:24.799Z,86.92
2023-03-14T09:37:04.486Z,86.94
2023-03-14T09:38:44.255Z,86.8
2023-03-14T09:40:23.993Z,86.78
2023-03-14T09:42:03.754Z,86.82
2023-03-14T09:43:43.543Z,86.83
2023-03-14T09:45:23.300Z,87.31
2023-03-14T09:47:03.086Z,87.59
2023-03-14T09:48:42.837Z,85.24
2023-03-14T09:50:22.593Z,84.83
2023-03-14T09:52:02.394Z,86.55
2023-03-14T09:53:42.162Z,83.96
2023-03-14T09:55:21.908Z,83.66
2023-03-14T09:57:01.765Z,83.34
2023-03-14T09:58:41.492Z,83.66
2023-03-14T10:00:21.225Z,83.58
2023-03-14T10:02:00.988Z,82.92
2023-03-14T10:03:40.758Z,83.24
2023-03-14T10:05:20.547Z,82.87
2023-03-14T10:07:00.314Z,83.35
2023-03-14T10:08:40.123Z,83.55
2023-03-14T10:10:19.930Z,84.09
2023-03-14T10:12:01.550Z,85.07
2023-03-14T10:13:39.374Z,83.91
2023-03-14T10:15:19.336Z,83.51
2023-03-14T10:16:58.974Z,82.96
2023-03-14T10:18:38.818Z,83.56
2023-03-14T10:20:18.453Z,83.74
2023-03-14T10:21:58.374Z,83.35
2023-03-14T10:23:38.106Z,81.73
2023-03-14T10:25:17.793Z,80.82
2023-03-14T10:26:57.562Z,81.23
2023-03-14T10:28:37.298Z,81.58
2023-03-14T10:30:17.062Z,81.83
2023-03-14T10:31:56.842Z,82.62
2023-03-14T10:33:36.628Z,83.57
2023-03-14T10:35:16.483Z,83.36
2023-03-14T10:36:56.249Z,82.85
2023-03-14T10:38:36.033Z,82.64
2023-03-14T10:40:15.761Z,82.23
2023-03-14T10:41:55.527Z,82.03
2023-03-14T10:43:35.247Z,82.97
2023-03-14T10:45:15.092Z,83.82
2023-03-14T10:46:54.801Z,83.64
2023-03-14T10:48:34.593Z,83.19
2023-03-14T10:50:14.477Z,83.39
2023-03-14T10:51:54.091Z,83.19
2023-03-14T10:53:33.938Z,82.19
2023-03-14T10:55:13.747Z,81.47
2023-03-14T10:56:53.536Z,81.04
2023-03-14T10:58:33.232Z,80.68
2023-03-14T11:00:12.930Z,80.51
2023-03-14T11:01:52.766Z,80.5
2023-03-14T11:03:32.577Z,80.51
2023-03-14T11:05:12.258Z,80.93
2023-03-14T11:06:52.016Z,81.49
2023-03-14T11:08:31.844Z,80.71
2023-03-14T11:10:11.582Z,80.57
2023-03-14T11:11:51.425Z,81.83
2023-03-14T11:13:31.157Z,83.44
2023-03-14T11:15:10.981Z,84.82
2023-03-14T11:16:50.837Z,85.24
2023-03-14T11:18:30.640Z,85.39
2023-03-14T11:20:10.349Z,85.47
2023-03-14T11:21:50.134Z,84.86
2023-03-14T11:23:29.727Z,84.85
2023-03-14T11:25:09.678Z,85.4
2023-03-14T11:26:49.388Z,85.05
2023-03-14T11:28:29.156Z,84.53
2023-03-14T11:30:08.969Z,84.12
2023-03-14T11:31:48.654Z,84.13
2023-03-14T11:33:28.504Z,84.07
2023-03-14T11:35:08.214Z,84.84
2023-03-14T11:36:47.891Z,85
2023-03-14T11:38:27.800Z,84.01
2023-03-14T11:40:07.430Z,84.52
2023-03-14T11:41:47.361Z,85.69
2023-03-14T11:43:26.983Z,84.64
2023-03-14T11:45:06.841Z,83.8
2023-03-14T11:46:46.672Z,84.43
2023-03-14T11:48:26.462Z,84.53
2023-03-14T11:50:06.131Z,84.89
2023-03-14T11:51:46.009Z,84.78
2023-03-14T11:53:25.718Z,84.84
2023-03-14T11:55:05.498Z,86.09
2023-03-14T11:56:45.132Z,85.93
2023-03-14T11:58:25.061Z,85.63
2023-03-14T12:00:04.799Z,86.38
2023-03-14T12:01:44.544Z,86.32
2023-03-14T12:03:24.293Z,85.36
2023-03-14T12:05:04.054Z,85.47
2023-03-14T12:06:43.762Z,87.01
2023-03-14T12:08:23.667Z,87.22
2023-03-14T12:10:03.304Z,86.42
2023-03-14T12:11:43.067Z,86.27
2023-03-14T12:13:22.906Z,86.38
2023-03-14T12:15:02.589Z,86.15
2023-03-14T12:16:42.401Z,85.81
2023-03-14T12:18:22.173Z,86.24
2023-03-14T12:20:01.920Z,86.94
2023-03-14T12:21:41.788Z,87.2
2023-03-14T12:23:21.624Z,87.33
2023-03-14T12:25:01.221Z,87.48
2023-03-14T12:26:41.009Z,87.19
2023-03-14T12:28:20.890Z,86.93
2023-03-14T12:30:00.541Z,86.4
2023-03-14T12:31:40.400Z,86.04
2023-03-14T12:33:20.212Z,86.08
2023-03-14T12:34:59.848Z,86.4
2023-03-14T12:36:39.620Z,86.34
2023-03-14T12:38:19.454Z,85.99
2023-03-14T12:39:59.173Z,85.73
2023-03-14T12:41:38.930Z,85.88
2023-03-14T12:43:18.740Z,85.53
2023-03-14T12:44:58.487Z,85.47
2023-03-14T12:46:38.245Z,85.58
2023-03-14T12:48:18.040Z,86.01
2023-03-14T12:49:57.828Z,86.39
2023-03-14T12:51:37.558Z,86.64
2023-03-14T12:53:17.341Z,87.86
2023-03-14T12:54:57.229Z,91.41
2023-03-14T12:56:36.868Z,90.31
2023-03-14T12:58:16.705Z,86.97
2023-03-14T12:59:56.412Z,87.02
2023-03-14T13:01:36.250Z,91.31
2023-03-14T13:03:16.037Z,89.61
2023-03-14T13:04:55.802Z,85.23
2023-03-14T13:06:35.520Z,84.81
2023-03-14T13:08:15.282Z,84.47
2023-03-14T13:09:55.133Z,84.69
2023-03-14T13:11:34.856Z,84.66
2023-03-14T13:13:14.608Z,84.71
2023-03-14T13:14:54.422Z,84.6
2023-03-14T13:16:34.106Z,85.32
2023-03-14T13:18:13.934Z,88.95
2023-03-14T13:19:53.906Z,86.77
2023-03-14T13:21:33.501Z,88.79
2023-03-14T13:23:13.198Z,85.87
2023-03-14T13:24:52.972Z,85.03
2023-03-14T13:26:32.730Z,84.27
2023-03-14T13:28:12.506Z,85
2023-03-14T13:29:52.287Z,86.24
2023-03-14T13:31:32.069Z,86.83
2023-03-14T13:33:11.886Z,87.1
2023-03-14T13:34:51.594Z,91.1
2023-03-14T13:36:31.385Z,86.75
2023-03-14T13:38:11.270Z,88.43
2023-03-14T13:39:50.929Z,86.91
2023-03-14T13:41:30.729Z,86.76
2023-03-14T13:43:10.466Z,87.9
2023-03-14T13:44:50.311Z,89.46
2023-03-14T13:46:30.116Z,88.1
2023-03-14T13:48:09.746Z,87.22
2023-03-14T13:49:49.558Z,87.27
2023-03-14T13:51:29.285Z,87.51
2023-03-14T13:53:09.086Z,87.47
2023-03-14T13:54:48.822Z,87.59
2023-03-14T13:56:28.629Z,87.67
2023-03-14T13:58:08.409Z,84.93
2023-03-14T13:59:48.289Z,81.72
2023-03-14T14:01:27.970Z,84
2023-03-14T14:03:07.716Z,85.01
2023-03-14T14:04:47.453Z,85.57
2023-03-14T14:06:27.246Z,86.47
2023-03-14T14:08:06.996Z,86.76
2023-03-14T14:09:46.770Z,86.3
2023-03-14T14:11:26.607Z,86.91
2023-03-14T14:13:06.378Z,89.98
2023-03-14T14:14:46.074Z,86.93
2023-03-14T14:16:25.901Z,85.84
2023-03-14T14:18:05.616Z,85.83
2023-03-14T14:19:45.495Z,85.64
2023-03-14T14:21:25.150Z,89.79
2023-03-14T14:23:04.930Z,85.46
2023-03-14T14:24:44.783Z,85.05
2023-03-14T14:26:24.547Z,84.62
2023-03-14T14:28:04.419Z,84.75
2023-03-14T14:29:44.222Z,86.44
2023-03-14T14:31:23.846Z,87.89
2023-03-14T14:33:03.659Z,82.52
2023-03-14T14:34:43.459Z,83.82
2023-03-14T14:36:23.171Z,85.66
2023-03-14T14:38:02.873Z,89.56
2023-03-14T14:39:42.685Z,86.48
2023-03-14T14:41:22.516Z,87.06
2023-03-14T14:43:02.182Z,88.05
2023-03-14T14:44:42.007Z,87.81
2023-03-14T14:46:21.804Z,85.3
2023-03-14T14:48:01.505Z,86.69
2023-03-14T14:49:41.264Z,84.49
2023-03-14T14:51:21.159Z,84.68
2023-03-14T14:53:00.887Z,85.17
2023-03-14T14:54:40.558Z,84.89
2023-03-14T14:56:20.338Z,85.33
2023-03-14T14:58:00.180Z,85.06
2023-03-14T14:59:40.012Z,84.67
2023-03-14T15:01:19.794Z,83.96
2023-03-14T15:02:59.561Z,83.76
2023-03-14T15:04:39.253Z,83.26
2023-03-14T15:06:19.134Z,83.24
2023-03-14T15:07:58.728Z,83.58
2023-03-14T15:09:38.704Z,84.11
2023-03-14T15:11:18.338Z,84.37
2023-03-14T15:12:58.154Z,84.02
2023-03-14T15:14:37.885Z,83.15
2023-03-14T15:16:17.594Z,81.44
2023-03-14T15:17:57.409Z,79.62
2023-03-14T15:19:37.150Z,78
2023-03-14T15:21:16.905Z,75.26
2023-03-14T15:22:56.763Z,71.5
2023-03-14T15:24:36.440Z,61.44
2023-03-14T15:26:16.337Z,50.4
2023-03-14T15:27:55.986Z,38.53
2023-03-14T15:29:35.743Z,33.98
2023-03-14T15:31:15.518Z,32.5
2023-03-14T15:32:55.395Z,33.07
2023-03-14T15:34:35.154Z,32.05
2023-03-14T15:36:14.968Z,28.31
2023-03-14T15:37:54.652Z,28.32
2023-03-14T15:39:34.502Z,28.31
2023-03-14T15:41:14.127Z,28.27
2023-03-14T15:42:53.943Z,28.24
2023-03-14T15:44:33.721Z,28.19
2023-03-14T15:46:13.441Z,28.16
2023-03-14T15:47:53.251Z,28.16
2023-03-14T15:49:32.996Z,28.14
2023-03-14T15:51:12.835Z,28.17
2023-03-14T15:52:52.553Z,28.14
2023-03-14T15:54:32.350Z,28.14
2023-03-14T15:56:12.054Z,76.94
2023-03-14T15:57:51.822Z,28.12
2023-03-14T15:59:31.589Z,28.06
2023-03-14T16:01:11.436Z,28.04
2023-03-14T16:02:51.232Z,28
2023-03-14T16:04:30.918Z,27.98
2023-03-14T16:06:10.806Z,27.97
2023-03-14T16:07:50.511Z,27.99
2023-03-14T16:09:30.201Z,27.97
2023-03-14T16:11:09.964Z,27.93
2023-03-14T16:12:49.879Z,27.9
2023-03-14T16:14:29.498Z,27.88
2023-03-14T16:16:09.398Z,27.85
2023-03-14T16:17:49.172Z,27.82
2023-03-14T16:19:28.842Z,27.8
2023-03-14T16:21:08.742Z,27.79
2023-03-14T16:22:48.377Z,27.76
2023-03-14T16:24:28.167Z,27.74
2023-03-14T16:26:07.957Z,27.72
2023-03-14T16:27:47.670Z,27.71
2023-03-14T16:29:27.478Z,27.67
2023-03-14T16:31:07.198Z,27.68
2023-03-14T16:32:46.992Z,27.64
2023-03-14T16:34:26.873Z,27.63
2023-03-14T16:36:06.550Z,27.61
2023-03-14T16:37:46.403Z,27.6
2023-03-14T16:39:26.008Z,27.58
2023-03-14T16:41:05.897Z,27.57
2023-03-14T16:42:45.700Z,27.55
2023-03-14T16:44:25.440Z,27.54
2023-03-14T16:46:05.123Z,27.53
2023-03-14T16:47:44.990Z,27.53
2023-03-14T16:49:24.778Z,27.51
2023-03-14T16:51:04.563Z,27.52
2023-03-14T16:52:44.299Z,27.51
2023-03-14T16:54:24.045Z,27.5
2023-03-14T16:56:03.937Z,27.49
2023-03-14T16:57:43.629Z,35.31
2023-03-14T16:59:23.387Z,27.48
2023-03-14T17:01:03.013Z,27.48
2023-03-14T17:02:42.739Z,27.45
2023-03-14T17:04:22.734Z,27.45
2023-03-14T17:06:02.446Z,27.44
2023-03-14T17:07:42.237Z,27.42
2023-03-14T17:09:21.950Z,27.4
2023-03-14T17:11:01.757Z,27.39
2023-03-14T17:12:41.350Z,27.38
2023-03-14T17:14:21.284Z,27.33
2023-03-14T17:16:01.080Z,27.31
2023-03-14T17:17:40.838Z,27.29
2023-03-14T17:19:20.416Z,27.24
2023-03-14T17:21:00.442Z,27.2
2023-03-14T17:22:39.971Z,25.76
2023-03-14T17:24:19.906Z,24.98
2023-03-14T17:25:59.495Z,21.95
2023-03-14T17:27:39.280Z,18.34
2023-03-14T17:29:19.186Z,14.93
2023-03-14T17:30:58.792Z,10.34
2023-03-14T17:32:38.644Z,8.04
2023-03-14T17:34:18.437Z,5.39
2023-03-14T17:35:58.298Z,3.71
2023-03-14T17:37:38.064Z,2.74
2023-03-14T17:39:17.722Z,1.99
2023-03-14T17:40:57.590Z,1.47
2023-03-14T17:42:37.162Z,1.23
2023-03-14T17:44:17.159Z,0.99
2023-03-14T17:45:56.694Z,0.79
2023-03-14T17:47:36.485Z,0.66
2023-03-14T17:49:16.304Z,0.61
2023-03-14T17:50:56.129Z,0.54
2023-03-14T17:52:35.783Z,0.45
2023-03-14T17:54:15.662Z,0.44
2023-03-14T17:55:55.354Z,0.43
2023-03-14T17:57:35.198Z,0.41
2023-03-14T17:59:15.011Z,0.41
2023-03-14T18:00:54.712Z,0.41
2023-03-14T18:02:34.636Z,0.41
2023-03-14T18:04:14.159Z,0.38
2023-03-14T18:05:54.018Z,0.41
2023-03-14T18:07:33.807Z,0.38
2023-03-14T18:09:13.456Z,0.4
2023-03-14T18:10:53.310Z,0.4
2023-03-14T18:12:33.118Z,0.39
2023-03-14T18:14:12.750Z,0.38
2023-03-14T18:15:52.568Z,0.34
2023-03-14T18:17:32.316Z,0.38
2023-03-14T18:19:12.162Z,0.35
2023-03-14T18:20:51.957Z,0.37
2023-03-14T18:22:31.582Z,0.33
2023-03-14T18:24:11.352Z,0.33
2023-03-14T18:25:51.133Z,0.33
2023-03-14T18:27:31.052Z,0.35
2023-03-14T18:29:10.657Z,0.33
2023-03-14T18:30:50.482Z,0.32
2023-03-14T18:32:30.272Z,0.35
2023-03-14T18:34:09.956Z,0.33
2023-03-14T18:35:49.770Z,0.34
2023-03-14T18:37:29.553Z,0.33
2023-03-14T18:39:09.403Z,0.32
2023-03-14T18:40:49.161Z,0.31
2023-03-14T18:42:28.801Z,0.28
2023-03-14T18:44:08.732Z,0.31
2023-03-14T18:45:48.495Z,0.3
2023-03-14T18:47:28.092Z,0.28
2023-03-14T18:49:08.004Z,0.28
2023-03-14T18:50:47.669Z,0.26
2023-03-14T18:52:27.392Z,0.21
2023-03-14T18:54:07.304Z,0.2
2023-03-14T18:55:47.011Z,0.22
2023-03-14T18:57:26.887Z,0.19
2023-03-14T18:59:06.459Z,0.21
2023-03-14T19:00:46.432Z,0.19
2023-03-14T19:02:26.186Z,0.19
2023-03-14T19:04:05.900Z,0.19
2023-03-14T19:05:45.538Z,0.22
2023-03-14T19:07:25.458Z,0.21
2023-03-14T19:09:05.075Z,0.2
2023-03-14T19:10:44.928Z,0.19
2023-03-14T19:12:24.779Z,0.18
2023-03-14T19:14:04.582Z,0.18
2023-03-14T19:15:44.309Z,0.18
2023-03-14T19:17:24.034Z,0.18
2023-03-14T19:19:03.733Z,0.17
2023-03-14T19:20:43.602Z,0.2
2023-03-14T19:22:23.307Z,0.18
2023-03-14T19:24:02.964Z,0.19
2023-03-14T19:25:42.783Z,0.18
2023-03-14T19:27:22.665Z,0.19
2023-03-14T19:29:02.421Z,0.21
2023-03-14T19:30:42.236Z,0.21
2023-03-14T19:32:21.947Z,0.18
2023-03-14T19:34:01.580Z,0.2
2023-03-14T19:35:41.406Z,0.18
2023-03-14T19:37:21.254Z,0.21
2023-03-14T19:39:00.895Z,0.2
2023-03-14T19:40:40.627Z,0.23
2023-03-14T19:42:20.515Z,0.22
2023-03-14T19:44:00.298Z,0.18
2023-03-14T19:45:40.189Z,0.2
2023-03-14T19:47:19.711Z,0.17
2023-03-14T19:48:59.648Z,0.2
2023-03-14T19:50:39.419Z,0.19
2023-03-14T19:52:19.128Z,0.17
2023-03-14T19:53:58.939Z,0.21
2023-03-14T19:55:38.769Z,0.19
2023-03-14T19:57:18.513Z,0.2
2023-03-14T19:58:58.246Z,0.16
2023-03-14T20:00:37.847Z,0.19
2023-03-14T20:02:17.755Z,0.19
2023-03-14T20:03:57.374Z,0.19
2023-03-14T20:05:37.279Z,0.19
2023-03-14T20:07:17.072Z,0.2
2023-03-14T20:08:56.673Z,0.16
2023-03-14T20:10:36.572Z,0.19
2023-03-14T20:12:16.380Z,0.17
2023-03-14T20:13:56.113Z,0.16
2023-03-14T20:15:35.929Z,0.19
2023-03-14T20:17:15.668Z,0.19
2023-03-14T20:18:55.446Z,0.16
2023-03-14T20:20:35.057Z,0.19
2023-03-14T20:22:14.820Z,0.16
2023-03-14T20:23:54.597Z,0.16
2023-03-14T20:25:34.362Z,0.19
2023-03-14T20:27:14.202Z,0.17
2023-03-14T20:28:54.034Z,0.18
2023-03-14T20:30:33.842Z,0.16
2023-03-14T20:32:13.532Z,0.19
2023-03-14T20:33:53.213Z,0.18
2023-03-14T20:35:32.964Z,0.17
2023-03-14T20:37:12.910Z,0.17
2023-03-14T20:38:52.627Z,0.18
2023-03-14T20:40:32.428Z,0.16
2023-03-14T20:42:12.039Z,0.18
2023-03-14T20:43:51.807Z,0.19
2023-03-14T20:45:31.777Z,0.16
2023-03-14T20:47:11.439Z,0.16
2023-03-14T20:48:51.231Z,0.16
2023-03-14T20:50:31.032Z,0.16
2023-03-14T20:52:10.792Z,0.18
2023-03-14T20:53:50.410Z,0.17
2023-03-14T20:55:30.201Z,0.15
2023-03-14T20:57:09.999Z,0.16
2023-03-14T20:58:49.734Z,0.19
2023-03-14T21:00:29.482Z,0.18
2023-03-14T21:02:09.370Z,0.17
2023-03-14T21:03:49.146Z,0.19
2023-03-14T21:05:28.785Z,0.19
2023-03-14T21:07:08.680Z,0.18
2023-03-14T21:08:48.304Z,0.18
2023-03-14T21:10:28.171Z,0.17
2023-03-14T21:12:08.043Z,0.16
2023-03-14T21:13:47.787Z,0.15
2023-03-14T21:15:27.389Z,0.18
2023-03-14T21:17:07.288Z,0.18
2023-03-14T21:18:46.912Z,0.19
2023-03-14T21:20:26.824Z,0.17
2023-03-14T21:22:06.569Z,0.16
2023-03-14T21:23:46.394Z,0.18
2023-03-14T21:25:26.000Z,0.15
2023-03-14T21:27:05.923Z,0.16
2023-03-14T21:28:45.545Z,0.16
2023-03-14T21:30:25.281Z,0.15
2023-03-14T21:32:05.151Z,0.16
2023-03-14T21:33:44.899Z,0.19
2023-03-14T21:35:24.713Z,0.15
2023-03-14T21:37:04.544Z,0.18
2023-03-14T21:38:44.274Z,0.17
2023-03-14T21:40:24.046Z,0.16
2023-03-14T21:42:03.658Z,0.15
2023-03-14T21:43:43.603Z,0.18
2023-03-14T21:45:23.199Z,0.19
2023-03-14T21:47:03.127Z,0.15